Pagrindinis puslapis
METAR-TAF:

METAR-TAF

Oro uostai :

Somerset-Pulaski County Airport (J.T. Wilson Field)

Somerset, Kentukis, Jungtinės Amerikos Valstijos

platuma: 37-03-15N, ilguma: 084-36-54W, Aukštis: 283 m

Dabartinis oras

Ataskaita buvo paskelbta 33 minutes, ne 03:55 UTC
Ramus vėjas
Temperatūra 4°C
Drėgmė 87%
Slėgis 1020 hPa
Matomumas: 16.1 km
Giedras dangus

METAR: KSME 020355Z AUTO 00000KT 10SM CLR 04/02 A3011 RMK AO2

Laikas: 00:28 (04:28 UTC)

Prognozė

Ataskaita buvo paskelbta 4 valandos ir 51 minutes, ne 23:37 UTC
Prognozė galioja nuo 02 metu 00 UTC su 02 metu 24 UTC
Vėjas 3 kt nuo kintamojo kryptimis
Matomumas: 10 km
Su prošvaistėmis ne aukštis 5000 ft
Nuo 02 metu 1500 UTC
Vėjas kt iš Šiaurės
Matomumas: 10 km
Išsisklaidę debesys ne aukštis 25000 ft

TAF: KSME 012337Z 0200/0224 VRB03KT P6SM BKN050 FM021500 00000KT P6SM SCT250

Orai ataskaitas ir orų prognozės (METAR, TAF).

turimą stotys yra geltonos ir raudonos taškus žemėlapyje.

Perkelti pele per norėdami pamatyti stoties vardą.

Tada spustelėkite, norėdami matyti oro stebėjimo ir prognozės.

Norėdami pakeisti žemėlapį: spustelėkite ant žalios mygtukų su juodo kryžiaus žemyn,; žalią mygtuką su brūkšneliu, jei norite nutolinti; arba žalių rodyklių gretimoms žemėlapius.


METAR-TAF: